sensor_id;sensor_type;location;lat;lon;timestamp;temperature;humidity
51884;DHT22;37915;53.254;6.598;2023-10-13T00:04:21;14.10;99.90
51884;DHT22;37915;53.254;6.598;2023-10-13T00:06:54;13.90;99.90
51884;DHT22;37915;53.254;6.598;2023-10-13T00:09:26;13.70;99.90
51884;DHT22;37915;53.254;6.598;2023-10-13T00:12:01;13.80;99.90
51884;DHT22;37915;53.254;6.598;2023-10-13T00:14:28;14.00;99.90
51884;DHT22;37915;53.254;6.598;2023-10-13T00:19:33;14.10;99.90
51884;DHT22;37915;53.254;6.598;2023-10-13T00:22:25;13.80;99.90
51884;DHT22;37915;53.254;6.598;2023-10-13T00:24:56;14.20;99.90
51884;DHT22;37915;53.254;6.598;2023-10-13T00:30:08;14.30;99.90
51884;DHT22;37915;53.254;6.598;2023-10-13T00:32:47;14.10;99.90
51884;DHT22;37915;53.254;6.598;2023-10-13T00:35:18;14.40;99.90
51884;DHT22;37915;53.254;6.598;2023-10-13T00:37:54;14.20;99.90
51884;DHT22;37915;53.254;6.598;2023-10-13T00:40:21;14.80;99.90
51884;DHT22;37915;53.254;6.598;2023-10-13T00:51:04;14.50;99.90
51884;DHT22;37915;53.254;6.598;2023-10-13T00:53:33;14.60;99.90
51884;DHT22;37915;53.254;6.598;2023-10-13T00:56:03;14.60;99.90
51884;DHT22;37915;53.254;6.598;2023-10-13T00:58:36;14.70;99.90
51884;DHT22;37915;53.254;6.598;2023-10-13T01:01:05;14.80;99.90
51884;DHT22;37915;53.254;6.598;2023-10-13T01:03:48;14.70;99.90
51884;DHT22;37915;53.254;6.598;2023-10-13T01:06:17;14.80;99.90
51884;DHT22;37915;53.254;6.598;2023-10-13T01:08:48;14.80;99.90
51884;DHT22;37915;53.254;6.598;2023-10-13T01:11:18;14.90;99.90
51884;DHT22;37915;53.254;6.598;2023-10-13T01:13:44;15.00;99.90
51884;DHT22;37915;53.254;6.598;2023-10-13T01:16:12;15.00;99.90
51884;DHT22;37915;53.254;6.598;2023-10-13T01:18:38;15.00;99.90
51884;DHT22;37915;53.254;6.598;2023-10-13T01:21:16;15.00;99.90
51884;DHT22;37915;53.254;6.598;2023-10-13T01:23:45;15.10;99.90
51884;DHT22;37915;53.254;6.598;2023-10-13T01:26:13;15.10;99.90
51884;DHT22;37915;53.254;6.598;2023-10-13T01:28:43;15.10;99.90
51884;DHT22;37915;53.254;6.598;2023-10-13T01:31:12;15.20;99.90
51884;DHT22;37915;53.254;6.598;2023-10-13T01:33:53;15.20;99.90
51884;DHT22;37915;53.254;6.598;2023-10-13T01:36:22;15.20;99.90
51884;DHT22;37915;53.254;6.598;2023-10-13T01:38:49;15.30;99.90
51884;DHT22;37915;53.254;6.598;2023-10-13T01:41:16;15.30;99.90
51884;DHT22;37915;53.254;6.598;2023-10-13T01:43:42;15.30;99.90
51884;DHT22;37915;53.254;6.598;2023-10-13T01:46:09;15.20;99.90
51884;DHT22;37915;53.254;6.598;2023-10-13T01:48:35;15.30;99.90
51884;DHT22;37915;53.254;6.598;2023-10-13T01:51:05;15.30;99.90
51884;DHT22;37915;53.254;6.598;2023-10-13T01:53:36;15.40;99.90
51884;DHT22;37915;53.254;6.598;2023-10-13T01:56:03;15.30;99.90
51884;DHT22;37915;53.254;6.598;2023-10-13T01:58:31;15.40;99.90
51884;DHT22;37915;53.254;6.598;2023-10-13T02:00:57;15.40;99.90
51884;DHT22;37915;53.254;6.598;2023-10-13T02:03:23;15.40;99.90
51884;DHT22;37915;53.254;6.598;2023-10-13T02:05:49;15.40;99.90
51884;DHT22;37915;53.254;6.598;2023-10-13T02:08:20;15.40;99.90
51884;DHT22;37915;53.254;6.598;2023-10-13T02:10:54;15.50;99.90
51884;DHT22;37915;53.254;6.598;2023-10-13T02:13:21;15.50;99.90
51884;DHT22;37915;53.254;6.598;2023-10-13T02:15:49;15.50;99.90
51884;DHT22;37915;53.254;6.598;2023-10-13T02:18:19;15.50;99.90
51884;DHT22;37915;53.254;6.598;2023-10-13T02:21:08;15.50;99.90
51884;DHT22;37915;53.254;6.598;2023-10-13T02:23:40;15.60;99.90
51884;DHT22;37915;53.254;6.598;2023-10-13T02:26:11;15.60;99.90
51884;DHT22;37915;53.254;6.598;2023-10-13T02:28:59;15.60;99.90
51884;DHT22;37915;53.254;6.598;2023-10-13T02:31:27;15.60;99.90
51884;DHT22;37915;53.254;6.598;2023-10-13T02:33:53;15.60;99.90
51884;DHT22;37915;53.254;6.598;2023-10-13T02:36:19;15.60;99.90
51884;DHT22;37915;53.254;6.598;2023-10-13T02:38:51;15.60;99.90
51884;DHT22;37915;53.254;6.598;2023-10-13T02:41:18;15.70;99.90
51884;DHT22;37915;53.254;6.598;2023-10-13T02:43:55;15.70;99.90
51884;DHT22;37915;53.254;6.598;2023-10-13T02:46:21;15.70;99.90
51884;DHT22;37915;53.254;6.598;2023-10-13T02:48:48;15.70;99.90
51884;DHT22;37915;53.254;6.598;2023-10-13T02:51:19;15.70;99.90
51884;DHT22;37915;53.254;6.598;2023-10-13T02:53:57;15.70;99.90
51884;DHT22;37915;53.254;6.598;2023-10-13T02:56:28;15.70;99.90
51884;DHT22;37915;53.254;6.598;2023-10-13T02:58:55;15.70;99.90
51884;DHT22;37915;53.254;6.598;2023-10-13T03:01:34;15.70;99.90
51884;DHT22;37915;53.254;6.598;2023-10-13T03:04:03;15.70;99.90
51884;DHT22;37915;53.254;6.598;2023-10-13T03:06:34;15.70;99.90
51884;DHT22;37915;53.254;6.598;2023-10-13T03:09:06;15.80;99.90
51884;DHT22;37915;53.254;6.598;2023-10-13T03:11:45;15.80;99.90
51884;DHT22;37915;53.254;6.598;2023-10-13T03:14:15;15.80;99.90
51884;DHT22;37915;53.254;6.598;2023-10-13T03:16:56;15.80;99.90
51884;DHT22;37915;53.254;6.598;2023-10-13T03:19:28;15.80;99.90
51884;DHT22;37915;53.254;6.598;2023-10-13T03:22:05;15.80;99.90
51884;DHT22;37915;53.254;6.598;2023-10-13T03:24:38;15.90;99.90
51884;DHT22;37915;53.254;6.598;2023-10-13T03:27:12;15.80;99.90
51884;DHT22;37915;53.254;6.598;2023-10-13T03:29:42;15.90;99.90
51884;DHT22;37915;53.254;6.598;2023-10-13T03:32:13;15.90;99.90
51884;DHT22;37915;53.254;6.598;2023-10-13T03:34:41;15.90;99.90
51884;DHT22;37915;53.254;6.598;2023-10-13T03:37:18;15.90;99.90
51884;DHT22;37915;53.254;6.598;2023-10-13T03:42:57;15.80;99.90
51884;DHT22;37915;53.254;6.598;2023-10-13T03:45:44;15.90;99.90
51884;DHT22;37915;53.254;6.598;2023-10-13T03:48:15;16.00;99.90
51884;DHT22;37915;53.254;6.598;2023-10-13T03:50:54;15.90;99.90
51884;DHT22;37915;53.254;6.598;2023-10-13T03:53:36;15.90;99.90
51884;DHT22;37915;53.254;6.598;2023-10-13T03:56:16;15.90;99.90
51884;DHT22;37915;53.254;6.598;2023-10-13T03:58:49;15.90;99.90
51884;DHT22;37915;53.254;6.598;2023-10-13T04:01:15;15.90;99.90
51884;DHT22;37915;53.254;6.598;2023-10-13T04:03:42;15.90;99.90
51884;DHT22;37915;53.254;6.598;2023-10-13T04:06:23;15.90;99.90
51884;DHT22;37915;53.254;6.598;2023-10-13T04:09:09;15.90;99.90
51884;DHT22;37915;53.254;6.598;2023-10-13T04:12:06;15.90;99.90
51884;DHT22;37915;53.254;6.598;2023-10-13T04:14:44;15.90;99.90
51884;DHT22;37915;53.254;6.598;2023-10-13T04:17:28;15.90;99.90
51884;DHT22;37915;53.254;6.598;2023-10-13T04:19:57;15.90;99.90
51884;DHT22;37915;53.254;6.598;2023-10-13T04:22:39;15.90;99.90
51884;DHT22;37915;53.254;6.598;2023-10-13T04:25:22;15.90;99.90
51884;DHT22;37915;53.254;6.598;2023-10-13T04:28:14;15.90;99.90
51884;DHT22;37915;53.254;6.598;2023-10-13T04:30:45;15.90;99.90
51884;DHT22;37915;53.254;6.598;2023-10-13T04:33:31;16.00;99.90
51884;DHT22;37915;53.254;6.598;2023-10-13T04:36:16;15.90;99.90
51884;DHT22;37915;53.254;6.598;2023-10-13T04:38:48;15.90;99.90
51884;DHT22;37915;53.254;6.598;2023-10-13T04:41:28;15.90;99.90
51884;DHT22;37915;53.254;6.598;2023-10-13T04:44:03;16.00;99.90
51884;DHT22;37915;53.254;6.598;2023-10-13T04:46:47;15.90;99.90
51884;DHT22;37915;53.254;6.598;2023-10-13T04:49:13;16.00;99.90
51884;DHT22;37915;53.254;6.598;2023-10-13T04:51:58;16.00;99.90
51884;DHT22;37915;53.254;6.598;2023-10-13T04:54:25;16.00;99.90
51884;DHT22;37915;53.254;6.598;2023-10-13T04:56:52;16.00;99.90
51884;DHT22;37915;53.254;6.598;2023-10-13T04:59:41;16.00;99.90
51884;DHT22;37915;53.254;6.598;2023-10-13T05:02:33;16.00;99.90
51884;DHT22;37915;53.254;6.598;2023-10-13T05:05:08;16.00;99.90
51884;DHT22;37915;53.254;6.598;2023-10-13T05:07:56;16.00;99.90
51884;DHT22;37915;53.254;6.598;2023-10-13T05:10:40;16.00;99.90
51884;DHT22;37915;53.254;6.598;2023-10-13T05:13:24;15.90;99.90
51884;DHT22;37915;53.254;6.598;2023-10-13T05:16:08;16.00;99.90
51884;DHT22;37915;53.254;6.598;2023-10-13T05:18:52;16.00;99.90
51884;DHT22;37915;53.254;6.598;2023-10-13T05:21:37;16.00;99.90
51884;DHT22;37915;53.254;6.598;2023-10-13T05:24:21;16.00;99.90
51884;DHT22;37915;53.254;6.598;2023-10-13T05:27:05;15.90;99.90
51884;DHT22;37915;53.254;6.598;2023-10-13T05:29:49;16.00;99.90
51884;DHT22;37915;53.254;6.598;2023-10-13T05:32:33;16.00;99.90
51884;DHT22;37915;53.254;6.598;2023-10-13T05:35:20;15.90;99.90
51884;DHT22;37915;53.254;6.598;2023-10-13T05:38:04;16.00;99.90
51884;DHT22;37915;53.254;6.598;2023-10-13T05:40:56;15.90;99.90
51884;DHT22;37915;53.254;6.598;2023-10-13T05:43:40;15.90;99.90
51884;DHT22;37915;53.254;6.598;2023-10-13T05:46:25;15.90;99.90
51884;DHT22;37915;53.254;6.598;2023-10-13T05:48:51;15.90;99.90
51884;DHT22;37915;53.254;6.598;2023-10-13T05:51:27;15.90;99.90
51884;DHT22;37915;53.254;6.598;2023-10-13T05:54:10;15.90;99.90
51884;DHT22;37915;53.254;6.598;2023-10-13T05:56:49;15.80;99.90
51884;DHT22;37915;53.254;6.598;2023-10-13T05:59:35;15.80;99.90
51884;DHT22;37915;53.254;6.598;2023-10-13T06:02:21;15.80;99.90
51884;DHT22;37915;53.254;6.598;2023-10-13T06:05:12;15.70;99.90
51884;DHT22;37915;53.254;6.598;2023-10-13T06:07:57;15.70;99.90
51884;DHT22;37915;53.254;6.598;2023-10-13T06:10:43;15.70;99.90
51884;DHT22;37915;53.254;6.598;2023-10-13T06:13:27;15.70;99.90
51884;DHT22;37915;53.254;6.598;2023-10-13T06:16:16;15.70;99.90
51884;DHT22;37915;53.254;6.598;2023-10-13T06:19:00;15.70;99.90
51884;DHT22;37915;53.254;6.598;2023-10-13T06:21:45;15.70;99.90
51884;DHT22;37915;53.254;6.598;2023-10-13T06:24:30;15.70;99.90
51884;DHT22;37915;53.254;6.598;2023-10-13T06:27:15;15.70;99.90
51884;DHT22;37915;53.254;6.598;2023-10-13T06:29:59;15.60;99.90
51884;DHT22;37915;53.254;6.598;2023-10-13T06:32:26;15.60;99.90
51884;DHT22;37915;53.254;6.598;2023-10-13T06:34:53;15.60;99.90
51884;DHT22;37915;53.254;6.598;2023-10-13T06:37:26;15.60;99.90
51884;DHT22;37915;53.254;6.598;2023-10-13T06:39:57;15.60;99.90
51884;DHT22;37915;53.254;6.598;2023-10-13T06:42:26;15.70;99.90
51884;DHT22;37915;53.254;6.598;2023-10-13T06:44:55;15.60;99.90
51884;DHT22;37915;53.254;6.598;2023-10-13T06:47:24;15.60;99.90
51884;DHT22;37915;53.254;6.598;2023-10-13T06:49:50;15.60;99.90
51884;DHT22;37915;53.254;6.598;2023-10-13T06:52:23;15.70;99.90
51884;DHT22;37915;53.254;6.598;2023-10-13T06:54:55;15.70;99.90
51884;DHT22;37915;53.254;6.598;2023-10-13T06:57:21;15.70;99.90
51884;DHT22;37915;53.254;6.598;2023-10-13T06:59:47;15.70;99.90
51884;DHT22;37915;53.254;6.598;2023-10-13T07:02:13;15.70;99.90
51884;DHT22;37915;53.254;6.598;2023-10-13T07:04:48;15.80;99.90
51884;DHT22;37915;53.254;6.598;2023-10-13T07:07:14;15.90;99.90
51884;DHT22;37915;53.254;6.598;2023-10-13T07:09:42;15.90;99.90
51884;DHT22;37915;53.254;6.598;2023-10-13T07:12:23;16.00;99.90
51884;DHT22;37915;53.254;6.598;2023-10-13T07:14:52;16.00;99.90
51884;DHT22;37915;53.254;6.598;2023-10-13T07:17:19;15.90;99.90
51884;DHT22;37915;53.254;6.598;2023-10-13T07:19:54;16.00;99.90
51884;DHT22;37915;53.254;6.598;2023-10-13T07:22:22;16.00;99.90
51884;DHT22;37915;53.254;6.598;2023-10-13T07:24:49;15.90;99.90
51884;DHT22;37915;53.254;6.598;2023-10-13T07:27:22;16.00;99.90
51884;DHT22;37915;53.254;6.598;2023-10-13T07:29:53;16.00;99.90
51884;DHT22;37915;53.254;6.598;2023-10-13T07:32:42;16.00;99.90
51884;DHT22;37915;53.254;6.598;2023-10-13T07:35:18;16.00;99.90
51884;DHT22;37915;53.254;6.598;2023-10-13T07:37:45;16.00;99.90
51884;DHT22;37915;53.254;6.598;2023-10-13T07:40:14;16.00;99.90
51884;DHT22;37915;53.254;6.598;2023-10-13T07:42:53;16.00;99.90
51884;DHT22;37915;53.254;6.598;2023-10-13T07:45:26;16.00;99.90
51884;DHT22;37915;53.254;6.598;2023-10-13T07:48:05;16.00;99.90
51884;DHT22;37915;53.254;6.598;2023-10-13T07:51:03;16.00;99.90
51884;DHT22;37915;53.254;6.598;2023-10-13T07:53:30;16.00;99.90
51884;DHT22;37915;53.254;6.598;2023-10-13T07:56:00;16.00;99.90
51884;DHT22;37915;53.254;6.598;2023-10-13T07:58:31;16.00;99.90
51884;DHT22;37915;53.254;6.598;2023-10-13T08:00:57;16.00;99.90
51884;DHT22;37915;53.254;6.598;2023-10-13T08:03:36;15.90;99.90
51884;DHT22;37915;53.254;6.598;2023-10-13T08:06:17;15.90;99.90
51884;DHT22;37915;53.254;6.598;2023-10-13T08:08:43;15.90;99.90
51884;DHT22;37915;53.254;6.598;2023-10-13T08:11:09;15.90;99.90
51884;DHT22;37915;53.254;6.598;2023-10-13T08:13:58;15.90;99.90
51884;DHT22;37915;53.254;6.598;2023-10-13T08:16:29;15.90;99.90
51884;DHT22;37915;53.254;6.598;2023-10-13T08:19:16;15.90;99.90
51884;DHT22;37915;53.254;6.598;2023-10-13T08:21:43;15.90;99.90
51884;DHT22;37915;53.254;6.598;2023-10-13T08:24:20;15.90;99.90
51884;DHT22;37915;53.254;6.598;2023-10-13T08:27:19;15.90;99.90
51884;DHT22;37915;53.254;6.598;2023-10-13T08:30:01;15.90;99.90
51884;DHT22;37915;53.254;6.598;2023-10-13T08:32:28;16.00;99.90
51884;DHT22;37915;53.254;6.598;2023-10-13T08:34:59;16.00;99.90
51884;DHT22;37915;53.254;6.598;2023-10-13T08:37:34;16.00;99.90
51884;DHT22;37915;53.254;6.598;2023-10-13T08:40:18;16.00;99.90
51884;DHT22;37915;53.254;6.598;2023-10-13T08:43:05;16.00;99.90
51884;DHT22;37915;53.254;6.598;2023-10-13T08:45:36;16.00;99.90
51884;DHT22;37915;53.254;6.598;2023-10-13T08:48:01;16.00;99.90
51884;DHT22;37915;53.254;6.598;2023-10-13T08:50:48;16.10;99.90
51884;DHT22;37915;53.254;6.598;2023-10-13T08:53:28;16.10;99.90
51884;DHT22;37915;53.254;6.598;2023-10-13T08:56:08;16.10;99.90
51884;DHT22;37915;53.254;6.598;2023-10-13T08:58:41;16.20;99.90
51884;DHT22;37915;53.254;6.598;2023-10-13T09:01:32;16.20;99.90
51884;DHT22;37915;53.254;6.598;2023-10-13T09:04:14;16.30;99.90
51884;DHT22;37915;53.254;6.598;2023-10-13T09:07:03;16.30;99.90
51884;DHT22;37915;53.254;6.598;2023-10-13T09:12:14;16.40;99.90
51884;DHT22;37915;53.254;6.598;2023-10-13T09:14:43;16.40;99.90
51884;DHT22;37915;53.254;6.598;2023-10-13T09:17:23;16.40;99.90
51884;DHT22;37915;53.254;6.598;2023-10-13T09:20:05;16.50;99.90
51884;DHT22;37915;53.254;6.598;2023-10-13T09:22:58;16.60;99.90
51884;DHT22;37915;53.254;6.598;2023-10-13T09:25:27;16.60;99.90
51884;DHT22;37915;53.254;6.598;2023-10-13T09:27:58;16.70;99.90
51884;DHT22;37915;53.254;6.598;2023-10-13T09:30:26;16.80;99.90
51884;DHT22;37915;53.254;6.598;2023-10-13T09:33:04;16.80;99.90
51884;DHT22;37915;53.254;6.598;2023-10-13T09:35:31;16.90;99.90
51884;DHT22;37915;53.254;6.598;2023-10-13T09:38:00;16.90;99.90
51884;DHT22;37915;53.254;6.598;2023-10-13T09:40:29;17.00;99.90
51884;DHT22;37915;53.254;6.598;2023-10-13T09:43:01;17.10;99.90
51884;DHT22;37915;53.254;6.598;2023-10-13T09:45:31;17.20;99.90
51884;DHT22;37915;53.254;6.598;2023-10-13T09:48:23;17.30;99.90
51884;DHT22;37915;53.254;6.598;2023-10-13T09:50:56;17.20;99.90
51884;DHT22;37915;53.254;6.598;2023-10-13T09:53:24;17.40;99.90
51884;DHT22;37915;53.254;6.598;2023-10-13T09:55:58;17.30;99.90
51884;DHT22;37915;53.254;6.598;2023-10-13T09:58:37;17.40;99.90
51884;DHT22;37915;53.254;6.598;2023-10-13T10:01:16;17.50;99.90
51884;DHT22;37915;53.254;6.598;2023-10-13T10:03:50;17.60;99.90
51884;DHT22;37915;53.254;6.598;2023-10-13T10:06:33;17.60;99.90
51884;DHT22;37915;53.254;6.598;2023-10-13T10:09:09;17.70;99.90
51884;DHT22;37915;53.254;6.598;2023-10-13T10:17:07;17.90;99.90
51884;DHT22;37915;53.254;6.598;2023-10-13T10:19:49;17.90;99.90
51884;DHT22;37915;53.254;6.598;2023-10-13T10:22:28;17.90;99.90
51884;DHT22;37915;53.254;6.598;2023-10-13T10:24:59;17.90;99.90
51884;DHT22;37915;53.254;6.598;2023-10-13T10:27:30;18.00;99.90
51884;DHT22;37915;53.254;6.598;2023-10-13T10:29:57;18.00;99.90
51884;DHT22;37915;53.254;6.598;2023-10-13T10:32:36;18.00;99.90
51884;DHT22;37915;53.254;6.598;2023-10-13T10:35:09;18.00;99.90
51884;DHT22;37915;53.254;6.598;2023-10-13T10:37:41;18.10;99.90
51884;DHT22;37915;53.254;6.598;2023-10-13T10:40:16;18.10;99.90
51884;DHT22;37915;53.254;6.598;2023-10-13T10:42:59;18.20;99.90
51884;DHT22;37915;53.254;6.598;2023-10-13T10:45:35;18.30;99.90
51884;DHT22;37915;53.254;6.598;2023-10-13T10:48:00;18.30;99.90
51884;DHT22;37915;53.254;6.598;2023-10-13T10:50:42;18.40;99.90
51884;DHT22;37915;53.254;6.598;2023-10-13T10:53:08;18.50;99.90
51884;DHT22;37915;53.254;6.598;2023-10-13T10:55:36;18.50;99.90
51884;DHT22;37915;53.254;6.598;2023-10-13T10:58:02;18.60;99.90
51884;DHT22;37915;53.254;6.598;2023-10-13T11:00:32;18.60;99.90
51884;DHT22;37915;53.254;6.598;2023-10-13T11:03:20;18.60;99.90
51884;DHT22;37915;53.254;6.598;2023-10-13T11:05:47;18.70;99.90
51884;DHT22;37915;53.254;6.598;2023-10-13T11:08:24;18.70;99.90
51884;DHT22;37915;53.254;6.598;2023-10-13T11:10:57;18.80;99.90
51884;DHT22;37915;53.254;6.598;2023-10-13T11:13:22;19.00;99.90
51884;DHT22;37915;53.254;6.598;2023-10-13T11:15:48;19.00;99.90
51884;DHT22;37915;53.254;6.598;2023-10-13T11:18:16;19.00;99.90
51884;DHT22;37915;53.254;6.598;2023-10-13T11:20:47;19.00;99.90
51884;DHT22;37915;53.254;6.598;2023-10-13T11:23:15;19.00;99.90
51884;DHT22;37915;53.254;6.598;2023-10-13T11:25:41;19.00;99.90
51884;DHT22;37915;53.254;6.598;2023-10-13T11:28:11;19.00;99.90
51884;DHT22;37915;53.254;6.598;2023-10-13T11:30:46;19.00;99.90
51884;DHT22;37915;53.254;6.598;2023-10-13T11:33:16;19.00;99.90
51884;DHT22;37915;53.254;6.598;2023-10-13T11:35:53;19.10;99.90
51884;DHT22;37915;53.254;6.598;2023-10-13T11:40:56;19.20;99.90
51884;DHT22;37915;53.254;6.598;2023-10-13T11:43:32;19.20;99.90
51884;DHT22;37915;53.254;6.598;2023-10-13T11:46:22;19.20;99.90
51884;DHT22;37915;53.254;6.598;2023-10-13T11:49:01;19.20;99.90
51884;DHT22;37915;53.254;6.598;2023-10-13T11:51:43;19.20;99.90
51884;DHT22;37915;53.254;6.598;2023-10-13T11:54:19;19.10;99.90
51884;DHT22;37915;53.254;6.598;2023-10-13T11:56:48;19.00;99.90
51884;DHT22;37915;53.254;6.598;2023-10-13T11:59:14;18.90;99.90
51884;DHT22;37915;53.254;6.598;2023-10-13T12:01:46;18.90;99.90
51884;DHT22;37915;53.254;6.598;2023-10-13T12:04:31;18.80;99.90
51884;DHT22;37915;53.254;6.598;2023-10-13T12:07:14;18.70;99.90
51884;DHT22;37915;53.254;6.598;2023-10-13T12:09:46;18.60;99.90
51884;DHT22;37915;53.254;6.598;2023-10-13T12:12:25;18.60;99.90
51884;DHT22;37915;53.254;6.598;2023-10-13T12:14:51;18.60;99.90
51884;DHT22;37915;53.254;6.598;2023-10-13T12:17:29;18.60;99.90
51884;DHT22;37915;53.254;6.598;2023-10-13T12:20:07;18.60;99.90
51884;DHT22;37915;53.254;6.598;2023-10-13T12:22:36;18.70;99.90
51884;DHT22;37915;53.254;6.598;2023-10-13T12:25:08;18.70;99.90
51884;DHT22;37915;53.254;6.598;2023-10-13T12:27:54;18.70;99.90
51884;DHT22;37915;53.254;6.598;2023-10-13T12:30:26;18.80;99.90
51884;DHT22;37915;53.254;6.598;2023-10-13T12:33:02;18.80;99.90
51884;DHT22;37915;53.254;6.598;2023-10-13T12:35:41;18.90;99.90
51884;DHT22;37915;53.254;6.598;2023-10-13T12:38:25;18.80;99.90
51884;DHT22;37915;53.254;6.598;2023-10-13T12:41:20;18.80;99.90
51884;DHT22;37915;53.254;6.598;2023-10-13T12:44:06;18.90;99.90
51884;DHT22;37915;53.254;6.598;2023-10-13T12:46:51;18.90;99.90
51884;DHT22;37915;53.254;6.598;2023-10-13T12:49:36;18.90;99.90
51884;DHT22;37915;53.254;6.598;2023-10-13T12:52:12;18.80;99.90
51884;DHT22;37915;53.254;6.598;2023-10-13T12:55:03;18.70;99.90
51884;DHT22;37915;53.254;6.598;2023-10-13T12:57:33;18.60;99.90
51884;DHT22;37915;53.254;6.598;2023-10-13T12:59:59;18.60;99.90
51884;DHT22;37915;53.254;6.598;2023-10-13T13:02:26;18.50;99.90
51884;DHT22;37915;53.254;6.598;2023-10-13T13:04:56;18.50;99.90
51884;DHT22;37915;53.254;6.598;2023-10-13T13:07:32;18.50;99.90
51884;DHT22;37915;53.254;6.598;2023-10-13T13:10:12;18.50;99.90
51884;DHT22;37915;53.254;6.598;2023-10-13T13:12:42;18.50;99.90
51884;DHT22;37915;53.254;6.598;2023-10-13T13:15:08;18.40;99.90
51884;DHT22;37915;53.254;6.598;2023-10-13T13:17:37;18.30;99.90
51884;DHT22;37915;53.254;6.598;2023-10-13T13:20:08;18.20;99.90
51884;DHT22;37915;53.254;6.598;2023-10-13T13:22:51;18.20;99.90
51884;DHT22;37915;53.254;6.598;2023-10-13T13:25:19;18.10;99.90
51884;DHT22;37915;53.254;6.598;2023-10-13T13:27:50;18.10;99.90
51884;DHT22;37915;53.254;6.598;2023-10-13T13:30:16;18.00;99.90
51884;DHT22;37915;53.254;6.598;2023-10-13T13:32:45;18.00;99.90
51884;DHT22;37915;53.254;6.598;2023-10-13T13:35:11;18.00;99.90
51884;DHT22;37915;53.254;6.598;2023-10-13T13:37:39;17.90;99.90
51884;DHT22;37915;53.254;6.598;2023-10-13T13:40:06;17.90;99.90
51884;DHT22;37915;53.254;6.598;2023-10-13T13:42:45;17.80;99.90
51884;DHT22;37915;53.254;6.598;2023-10-13T13:45:15;17.80;99.90
51884;DHT22;37915;53.254;6.598;2023-10-13T13:48:01;17.80;99.90
51884;DHT22;37915;53.254;6.598;2023-10-13T13:50:37;17.80;99.90
51884;DHT22;37915;53.254;6.598;2023-10-13T13:53:06;17.80;99.90
51884;DHT22;37915;53.254;6.598;2023-10-13T13:55:35;17.80;99.90
51884;DHT22;37915;53.254;6.598;2023-10-13T13:58:01;17.80;99.90
51884;DHT22;37915;53.254;6.598;2023-10-13T14:00:30;17.80;99.90
51884;DHT22;37915;53.254;6.598;2023-10-13T14:03:11;17.80;99.90
51884;DHT22;37915;53.254;6.598;2023-10-13T14:05:55;17.80;99.90
51884;DHT22;37915;53.254;6.598;2023-10-13T14:08:24;17.80;99.90
51884;DHT22;37915;53.254;6.598;2023-10-13T14:10:51;17.90;99.90
51884;DHT22;37915;53.254;6.598;2023-10-13T14:13:43;17.90;99.90
51884;DHT22;37915;53.254;6.598;2023-10-13T14:16:18;17.90;99.90
51884;DHT22;37915;53.254;6.598;2023-10-13T14:18:49;18.00;99.90
51884;DHT22;37915;53.254;6.598;2023-10-13T14:21:15;18.00;99.90
51884;DHT22;37915;53.254;6.598;2023-10-13T14:23:48;18.00;99.90
51884;DHT22;37915;53.254;6.598;2023-10-13T14:26:15;18.10;99.90
51884;DHT22;37915;53.254;6.598;2023-10-13T14:28:45;18.10;99.90
51884;DHT22;37915;53.254;6.598;2023-10-13T14:31:31;18.10;99.90
51884;DHT22;37915;53.254;6.598;2023-10-13T14:33:57;18.10;99.90
51884;DHT22;37915;53.254;6.598;2023-10-13T14:36:23;18.10;99.90
51884;DHT22;37915;53.254;6.598;2023-10-13T14:38:49;18.10;99.90
51884;DHT22;37915;53.254;6.598;2023-10-13T14:41:16;18.10;99.90
51884;DHT22;37915;53.254;6.598;2023-10-13T14:43:42;18.10;99.90
51884;DHT22;37915;53.254;6.598;2023-10-13T14:46:17;18.10;99.90
51884;DHT22;37915;53.254;6.598;2023-10-13T14:48:43;18.20;99.90
51884;DHT22;37915;53.254;6.598;2023-10-13T14:51:12;18.20;99.90
51884;DHT22;37915;53.254;6.598;2023-10-13T14:53:45;18.20;99.90
51884;DHT22;37915;53.254;6.598;2023-10-13T14:56:11;18.20;99.90
51884;DHT22;37915;53.254;6.598;2023-10-13T14:58:41;18.20;99.90
51884;DHT22;37915;53.254;6.598;2023-10-13T15:01:13;18.20;99.90
51884;DHT22;37915;53.254;6.598;2023-10-13T15:03:45;18.20;99.90
51884;DHT22;37915;53.254;6.598;2023-10-13T15:06:22;18.20;99.90
51884;DHT22;37915;53.254;6.598;2023-10-13T15:08:55;18.10;99.90
51884;DHT22;37915;53.254;6.598;2023-10-13T15:11:21;18.10;99.90
51884;DHT22;37915;53.254;6.598;2023-10-13T15:13:55;18.20;99.90
51884;DHT22;37915;53.254;6.598;2023-10-13T15:16:23;18.20;99.90
51884;DHT22;37915;53.254;6.598;2023-10-13T15:18:50;18.30;99.90
51884;DHT22;37915;53.254;6.598;2023-10-13T15:21:27;18.30;99.90
51884;DHT22;37915;53.254;6.598;2023-10-13T15:24:00;18.20;99.90
51884;DHT22;37915;53.254;6.598;2023-10-13T15:26:33;18.20;99.90
51884;DHT22;37915;53.254;6.598;2023-10-13T15:29:07;18.10;99.90
51884;DHT22;37915;53.254;6.598;2023-10-13T15:31:38;18.10;99.90
51884;DHT22;37915;53.254;6.598;2023-10-13T15:34:11;18.30;99.90
51884;DHT22;37915;53.254;6.598;2023-10-13T15:36:42;18.00;99.90
51884;DHT22;37915;53.254;6.598;2023-10-13T15:39:12;17.90;99.90
51884;DHT22;37915;53.254;6.598;2023-10-13T15:41:41;17.90;99.90
51884;DHT22;37915;53.254;6.598;2023-10-13T15:44:11;17.80;99.90
51884;DHT22;37915;53.254;6.598;2023-10-13T15:46:38;17.80;99.90
51884;DHT22;37915;53.254;6.598;2023-10-13T15:49:05;17.80;99.90
51884;DHT22;37915;53.254;6.598;2023-10-13T15:51:34;17.80;99.90
51884;DHT22;37915;53.254;6.598;2023-10-13T15:54:02;17.80;99.90
51884;DHT22;37915;53.254;6.598;2023-10-13T15:56:29;17.80;99.90
51884;DHT22;37915;53.254;6.598;2023-10-13T15:59:01;17.80;99.90
51884;DHT22;37915;53.254;6.598;2023-10-13T16:01:27;17.80;99.90
51884;DHT22;37915;53.254;6.598;2023-10-13T16:03:54;17.80;99.90
51884;DHT22;37915;53.254;6.598;2023-10-13T16:06:20;17.80;99.90
51884;DHT22;37915;53.254;6.598;2023-10-13T16:08:51;17.80;99.90
51884;DHT22;37915;53.254;6.598;2023-10-13T16:11:17;17.80;99.90
51884;DHT22;37915;53.254;6.598;2023-10-13T16:13:47;17.80;99.90
51884;DHT22;37915;53.254;6.598;2023-10-13T16:16:21;17.80;99.90
51884;DHT22;37915;53.254;6.598;2023-10-13T16:18:51;17.80;99.90
51884;DHT22;37915;53.254;6.598;2023-10-13T16:21:18;17.70;99.90
51884;DHT22;37915;53.254;6.598;2023-10-13T16:23:48;17.80;99.90
51884;DHT22;37915;53.254;6.598;2023-10-13T16:26:14;17.80;99.90
51884;DHT22;37915;53.254;6.598;2023-10-13T16:28:40;17.70;99.90
51884;DHT22;37915;53.254;6.598;2023-10-13T16:31:09;17.80;99.90
51884;DHT22;37915;53.254;6.598;2023-10-13T16:33:35;17.70;99.90
51884;DHT22;37915;53.254;6.598;2023-10-13T16:36:02;17.80;99.90
51884;DHT22;37915;53.254;6.598;2023-10-13T16:38:40;17.70;99.90
51884;DHT22;37915;53.254;6.598;2023-10-13T16:41:06;17.70;99.90
51884;DHT22;37915;53.254;6.598;2023-10-13T16:43:35;17.70;99.90